Time;durP1;ratioP1;P1;durP2;ratioP2;P2;SDS_P1;SDS_P2;PMS_P1;PMS_P2;Temp;Humidity;BMP_temperature;BMP_pressure;BME280_temperature;BME280_humidity;BME280_pressure;Samples;Min_cycle;Max_cycle;Signal;HPM_P1;HPM_P2
2021/07/09 00:01:54;;;;;;;1.53;1.43;;;15.40;99.90;;;;;;5007510;28;20529;-51
2021/07/09 00:04:23;;;;;;;2.53;1.53;;;15.40;99.90;;;;;;5013493;28;20458;-51
2021/07/09 00:06:55;;;;;;;2.00;1.53;;;15.30;99.90;;;;;;5013316;28;20473;-51
2021/07/09 00:09:22;;;;;;;1.30;1.20;;;15.30;99.90;;;;;;5013414;28;20448;-50
2021/07/09 00:11:52;;;;;;;1.00;0.90;;;15.30;99.90;;;;;;5012378;28;20453;-51
2021/07/09 00:14:22;;;;;;;2.27;1.20;;;15.30;99.90;;;;;;5013304;28;20450;-51
2021/07/09 00:16:54;;;;;;;1.10;1.00;;;15.40;99.90;;;;;;5013401;28;20519;-51
2021/07/09 00:19:21;;;;;;;2.57;1.10;;;15.40;99.90;;;;;;5012522;28;20485;-51
2021/07/09 00:21:48;;;;;;;1.60;1.20;;;15.40;99.90;;;;;;5012983;28;20457;-51
2021/07/09 00:24:16;;;;;;;1.10;1.00;;;15.20;99.90;;;;;;5013084;28;20811;-51
2021/07/09 00:26:43;;;;;;;1.30;1.00;;;15.20;99.90;;;;;;5013097;28;20484;-51
2021/07/09 00:29:10;;;;;;;2.10;1.00;;;15.20;99.90;;;;;;5013163;28;20475;-51
2021/07/09 00:31:37;;;;;;;1.20;1.10;;;15.30;99.90;;;;;;5012789;28;20951;-51
2021/07/09 00:34:07;;;;;;;1.00;0.80;;;15.20;99.90;;;;;;5012744;28;20507;-51
2021/07/09 00:36:35;;;;;;;1.30;0.90;;;15.10;99.90;;;;;;5011640;28;20485;-51
2021/07/09 00:39:03;;;;;;;1.20;1.00;;;15.00;99.90;;;;;;5012804;28;21010;-52
2021/07/09 00:41:30;;;;;;;1.23;0.80;;;14.90;99.90;;;;;;5012571;28;20453;-51
2021/07/09 00:43:57;;;;;;;2.73;2.13;;;14.80;99.90;;;;;;5012458;28;20951;-51
2021/07/09 00:46:32;;;;;;;4.47;1.90;;;14.80;99.90;;;;;;5012675;28;20528;-51
2021/07/09 00:48:59;;;;;;;2.93;2.00;;;14.70;99.90;;;;;;5012546;28;20441;-50
2021/07/09 00:51:28;;;;;;;2.50;1.67;;;14.70;99.90;;;;;;5011650;28;20453;-50
2021/07/09 00:53:55;;;;;;;2.80;2.13;;;14.60;99.90;;;;;;5012492;28;20953;-51
2021/07/09 00:56:23;;;;;;;2.00;1.70;;;14.70;99.90;;;;;;5012407;28;20481;-51
2021/07/09 00:58:50;;;;;;;1.70;1.60;;;14.70;99.90;;;;;;5012360;28;20462;-51
2021/07/09 01:01:18;;;;;;;2.60;1.50;;;14.70;99.90;;;;;;5011885;28;20441;-51
2021/07/09 01:03:45;;;;;;;2.23;1.87;;;14.70;99.90;;;;;;5011749;28;20457;-51
2021/07/09 01:06:13;;;;;;;2.80;1.83;;;14.80;99.90;;;;;;5011821;28;20540;-51
2021/07/09 01:08:41;;;;;;;2.57;2.20;;;14.60;99.90;;;;;;5009991;28;20537;-51
2021/07/09 01:11:10;;;;;;;3.60;2.20;;;14.60;99.90;;;;;;5012070;28;20457;-51
2021/07/09 01:13:37;;;;;;;5.90;2.10;;;14.70;99.90;;;;;;5012270;28;20473;-51
2021/07/09 01:16:05;;;;;;;3.53;2.30;;;14.60;99.90;;;;;;5011886;28;20535;-51
2021/07/09 01:18:32;;;;;;;2.37;1.87;;;14.50;99.90;;;;;;5011963;28;20449;-51
2021/07/09 01:20:59;;;;;;;3.97;1.60;;;14.40;99.90;;;;;;5011902;28;20488;-51
2021/07/09 01:23:29;;;;;;;2.70;2.00;;;14.20;99.90;;;;;;5011528;28;20449;-50
2021/07/09 01:25:58;;;;;;;2.27;2.07;;;14.20;99.90;;;;;;5011473;28;20477;-51
2021/07/09 01:28:25;;;;;;;2.03;1.80;;;14.20;99.90;;;;;;5011882;28;20457;-51
2021/07/09 01:30:52;;;;;;;2.83;1.80;;;14.30;99.90;;;;;;5012122;28;20442;-51
2021/07/09 01:33:19;;;;;;;1.63;1.53;;;14.30;99.90;;;;;;5011822;28;20469;-51
2021/07/09 01:35:47;;;;;;;2.30;1.53;;;14.30;99.90;;;;;;5011142;28;20511;-50
2021/07/09 01:38:14;;;;;;;2.50;2.13;;;14.30;99.90;;;;;;5011612;28;20445;-51
2021/07/09 01:40:41;;;;;;;3.40;2.07;;;14.30;99.90;;;;;;5011536;28;20478;-51
2021/07/09 01:43:10;;;;;;;2.10;1.90;;;14.40;99.90;;;;;;5011120;28;20450;-49
2021/07/09 01:45:38;;;;;;;2.43;2.23;;;14.30;99.90;;;;;;4992359;28;20889;-51
2021/07/09 01:48:05;;;;;;;2.67;2.40;;;14.40;99.90;;;;;;5007005;28;20458;-51
2021/07/09 01:50:33;;;;;;;2.13;2.00;;;14.40;99.90;;;;;;5011019;28;20993;-51
2021/07/09 01:53:01;;;;;;;4.20;2.27;;;14.50;99.90;;;;;;5011465;28;20477;-51
2021/07/09 01:55:28;;;;;;;2.97;2.60;;;14.40;99.90;;;;;;5011739;28;21057;-51
2021/07/09 01:57:55;;;;;;;2.67;2.10;;;14.40;99.90;;;;;;5010882;28;20499;-51
2021/07/09 02:00:26;;;;;;;3.43;2.03;;;14.30;99.90;;;;;;5011707;28;20536;-51
2021/07/09 02:02:53;;;;;;;1.90;1.80;;;14.40;99.90;;;;;;5011097;28;20885;-51
2021/07/09 02:05:22;;;;;;;3.10;2.10;;;14.30;99.90;;;;;;5011537;28;20473;-51
2021/07/09 02:07:51;;;;;;;2.60;2.27;;;14.40;99.90;;;;;;5011216;28;20474;-51
2021/07/09 02:10:20;;;;;;;2.40;2.20;;;14.30;99.90;;;;;;5011479;28;20974;-51
2021/07/09 02:12:50;;;;;;;2.83;2.63;;;14.40;99.90;;;;;;5010880;28;20480;-51
2021/07/09 02:15:17;;;;;;;3.33;3.03;;;14.40;99.90;;;;;;5011217;28;20473;-50
2021/07/09 02:17:47;;;;;;;2.43;2.30;;;14.40;99.90;;;;;;5012481;28;21047;-51
2021/07/09 02:20:17;;;;;;;2.73;2.13;;;14.30;99.90;;;;;;5015091;28;20560;-51
2021/07/09 02:22:44;;;;;;;2.23;2.03;;;14.30;99.90;;;;;;5015111;28;20523;-51
2021/07/09 02:25:12;;;;;;;2.33;2.23;;;14.30;99.90;;;;;;5015471;28;20507;-51
2021/07/09 02:27:41;;;;;;;2.93;2.73;;;14.20;99.90;;;;;;5014222;28;20871;-51
2021/07/09 02:30:10;;;;;;;2.80;2.60;;;14.20;99.90;;;;;;5015377;28;20492;-51
2021/07/09 02:32:38;;;;;;;2.90;2.60;;;14.10;99.90;;;;;;5014319;28;20507;-51
2021/07/09 02:35:08;;;;;;;2.33;2.13;;;14.10;99.90;;;;;;5015226;28;20453;-51
2021/07/09 02:37:35;;;;;;;2.60;2.40;;;14.10;99.90;;;;;;5014454;28;20449;-51
2021/07/09 02:40:02;;;;;;;2.03;1.90;;;14.00;99.90;;;;;;5015019;28;20997;-51
2021/07/09 02:42:29;;;;;;;2.20;1.83;;;13.90;99.90;;;;;;5014337;28;21065;-51
2021/07/09 02:44:56;;;;;;;2.33;1.80;;;13.90;99.90;;;;;;5014708;28;20507;-51
2021/07/09 02:47:23;;;;;;;2.03;1.70;;;13.90;99.90;;;;;;5014283;28;20511;-51
2021/07/09 02:49:50;;;;;;;2.17;2.00;;;13.80;99.90;;;;;;5013986;28;21001;-51
2021/07/09 02:52:18;;;;;;;2.30;2.10;;;13.90;99.90;;;;;;5014649;28;20461;-51
2021/07/09 02:54:45;;;;;;;2.63;2.17;;;13.90;99.90;;;;;;5014565;28;20453;-51
2021/07/09 02:57:12;;;;;;;2.57;2.37;;;14.00;99.90;;;;;;5009055;28;20503;-50
2021/07/09 02:59:39;;;;;;;3.40;2.17;;;14.00;99.90;;;;;;5014312;28;20465;-51
2021/07/09 03:02:06;;;;;;;1.90;1.80;;;14.00;99.90;;;;;;5013707;28;20872;-51
2021/07/09 03:04:33;;;;;;;1.80;1.70;;;14.00;99.90;;;;;;5014595;28;20449;-51
2021/07/09 03:07:00;;;;;;;1.83;1.73;;;13.90;99.90;;;;;;4999801;28;20884;-50
2021/07/09 03:09:28;;;;;;;2.00;1.90;;;13.90;99.90;;;;;;5014413;28;20456;-51
2021/07/09 03:11:56;;;;;;;1.70;1.60;;;14.00;99.90;;;;;;5010765;28;20884;-51
2021/07/09 03:14:23;;;;;;;2.23;1.40;;;13.90;99.90;;;;;;5014418;28;20457;-49
2021/07/09 03:16:50;;;;;;;2.10;1.90;;;13.80;99.90;;;;;;5013675;28;20543;-51
2021/07/09 03:19:17;;;;;;;1.70;1.60;;;13.80;99.90;;;;;;5013303;28;20457;-51
2021/07/09 03:21:44;;;;;;;1.90;1.73;;;13.70;99.90;;;;;;5013354;28;20500;-51
2021/07/09 03:24:11;;;;;;;1.90;1.80;;;13.60;99.90;;;;;;5013804;28;20461;-51
2021/07/09 03:26:39;;;;;;;2.43;1.90;;;13.60;99.90;;;;;;5013414;28;20477;-51
2021/07/09 03:29:06;;;;;;;2.43;2.07;;;13.60;99.90;;;;;;5013080;28;20458;-51
2021/07/09 03:31:34;;;;;;;3.37;2.00;;;13.70;99.90;;;;;;5013980;28;20832;-50
2021/07/09 03:34:01;;;;;;;1.90;1.67;;;13.60;99.90;;;;;;5014093;28;20449;-51
2021/07/09 03:36:29;;;;;;;2.43;2.00;;;13.60;99.90;;;;;;5013142;28;20481;-51
2021/07/09 03:38:57;;;;;;;4.20;1.93;;;13.60;99.90;;;;;;4998526;28;20466;-50
2021/07/09 03:41:24;;;;;;;1.87;1.77;;;13.60;99.90;;;;;;5013358;28;20523;-50
2021/07/09 03:43:53;;;;;;;2.03;1.70;;;13.60;99.90;;;;;;5014026;28;20445;-51
2021/07/09 03:46:20;;;;;;;2.40;2.10;;;13.60;99.90;;;;;;5013544;28;20477;-51
2021/07/09 03:48:47;;;;;;;1.97;1.87;;;13.60;99.90;;;;;;5013323;28;20508;-51
2021/07/09 03:51:14;;;;;;;3.40;2.20;;;13.60;99.90;;;;;;5013136;28;20896;-51
2021/07/09 03:53:41;;;;;;;2.40;2.30;;;13.60;99.90;;;;;;5013113;28;20450;-50
2021/07/09 03:56:08;;;;;;;2.03;1.93;;;13.60;99.90;;;;;;5013186;28;20524;-51
2021/07/09 03:58:35;;;;;;;2.63;2.27;;;13.60;99.90;;;;;;5013168;28;20453;-51
2021/07/09 04:01:06;;;;;;;2.10;2.00;;;13.50;99.90;;;;;;5013313;28;20837;-50
2021/07/09 04:03:33;;;;;;;2.40;2.20;;;13.60;99.90;;;;;;5011949;28;20503;-51
2021/07/09 04:06:00;;;;;;;1.80;1.70;;;13.50;99.90;;;;;;5012761;28;20478;-51
2021/07/09 04:08:27;;;;;;;1.83;1.73;;;13.60;99.90;;;;;;5012693;28;20955;-51
2021/07/09 04:10:54;;;;;;;2.00;1.67;;;13.50;99.90;;;;;;5013032;28;21053;-51
2021/07/09 04:13:21;;;;;;;3.10;1.57;;;13.70;99.90;;;;;;5012711;28;20453;-51
2021/07/09 04:15:48;;;;;;;2.00;1.90;;;13.70;99.90;;;;;;5012566;28;20560;-51
2021/07/09 04:18:17;;;;;;;4.73;2.10;;;13.60;99.90;;;;;;5012990;28;20503;-51
2021/07/09 04:20:44;;;;;;;1.90;1.80;;;13.60;99.90;;;;;;5013080;28;21048;-51
2021/07/09 04:23:11;;;;;;;2.37;2.17;;;13.60;99.90;;;;;;5012495;28;20965;-51
2021/07/09 04:25:38;;;;;;;1.90;1.80;;;13.60;99.90;;;;;;5011989;28;20469;-51
2021/07/09 04:28:05;;;;;;;2.60;2.40;;;13.80;99.90;;;;;;5012518;28;20814;-51
2021/07/09 04:30:32;;;;;;;2.67;2.47;;;13.70;99.90;;;;;;5012441;28;20874;-50
2021/07/09 04:32:59;;;;;;;2.33;2.23;;;13.60;99.90;;;;;;5012021;28;20500;-51
2021/07/09 04:37:56;;;;;;;2.20;2.10;;;13.70;99.90;;;;;;4997991;28;20471;-54
2021/07/09 04:40:23;;;;;;;2.77;2.20;;;13.70;99.90;;;;;;5003133;28;20481;-54
2021/07/09 04:42:50;;;;;;;4.50;2.20;;;13.70;99.90;;;;;;5000391;28;20449;-53
2021/07/09 04:45:17;;;;;;;2.70;2.50;;;13.70;99.90;;;;;;5010237;28;20458;-54
2021/07/09 04:47:44;;;;;;;1.90;1.80;;;13.70;99.90;;;;;;4989989;28;20529;-53
2021/07/09 04:50:12;;;;;;;1.90;1.80;;;13.70;99.90;;;;;;4988595;28;20497;-54
2021/07/09 04:52:39;;;;;;;1.53;1.43;;;13.70;99.90;;;;;;4991088;28;20446;-54
2021/07/09 04:55:08;;;;;;;2.00;1.90;;;13.90;99.90;;;;;;4992071;28;20567;-53
2021/07/09 04:57:35;;;;;;;2.10;1.70;;;13.90;99.90;;;;;;4990533;28;20466;-55
2021/07/09 05:00:03;;;;;;;1.80;1.70;;;14.00;99.90;;;;;;4990227;28;20574;-52
2021/07/09 05:02:30;;;;;;;1.70;1.60;;;14.10;99.90;;;;;;4991291;28;20442;-54
2021/07/09 05:04:57;;;;;;;1.73;1.37;;;14.10;99.90;;;;;;4991091;28;20524;-53
2021/07/09 05:07:24;;;;;;;1.73;1.50;;;14.00;99.90;;;;;;4989798;28;20529;-53
2021/07/09 05:09:51;;;;;;;1.10;1.10;;;14.00;99.90;;;;;;4990670;28;20505;-54
2021/07/09 05:12:19;;;;;;;2.13;1.30;;;14.00;99.90;;;;;;4990075;28;20443;-53
2021/07/09 05:14:47;;;;;;;1.10;1.10;;;14.00;99.90;;;;;;4990550;28;20935;-54
2021/07/09 05:17:14;;;;;;;1.57;1.17;;;14.20;99.90;;;;;;4984740;28;20467;-54
2021/07/09 05:19:41;;;;;;;1.20;1.10;;;14.20;99.90;;;;;;4990877;28;20446;-53
2021/07/09 05:22:10;;;;;;;1.13;1.03;;;14.20;99.90;;;;;;4988007;28;20482;-53
2021/07/09 05:24:37;;;;;;;1.40;1.30;;;14.10;99.90;;;;;;4988393;28;20500;-53
2021/07/09 05:27:04;;;;;;;1.00;1.00;;;14.20;99.90;;;;;;4989420;28;20466;-53
2021/07/09 05:29:33;;;;;;;1.40;1.30;;;14.20;99.90;;;;;;4990916;28;20868;-54
2021/07/09 05:32:00;;;;;;;1.50;1.40;;;14.10;99.90;;;;;;4992873;28;20455;-51
2021/07/09 05:34:27;;;;;;;1.37;1.27;;;14.10;99.90;;;;;;4986502;28;20512;-52
2021/07/09 05:36:54;;;;;;;1.67;1.57;;;14.20;99.90;;;;;;4989915;28;20482;-52
2021/07/09 05:39:21;;;;;;;1.63;1.30;;;14.10;99.90;;;;;;4990253;28;20525;-52
2021/07/09 05:41:48;;;;;;;1.30;1.20;;;14.10;99.90;;;;;;4992387;28;20556;-52
2021/07/09 05:44:16;;;;;;;2.43;1.10;;;14.10;99.90;;;;;;4989823;28;20504;-52
2021/07/09 05:46:44;;;;;;;0.90;0.90;;;14.10;99.90;;;;;;4990166;28;20466;-53
2021/07/09 05:49:11;;;;;;;3.20;1.03;;;14.10;99.90;;;;;;4990158;28;20458;-52
2021/07/09 05:51:38;;;;;;;1.40;1.30;;;14.10;99.90;;;;;;4988290;28;20569;-53
2021/07/09 05:54:05;;;;;;;1.23;1.13;;;14.10;99.90;;;;;;4989997;28;20490;-52
2021/07/09 05:56:32;;;;;;;1.00;1.00;;;14.20;99.90;;;;;;4996441;28;20465;-52
2021/07/09 05:58:59;;;;;;;1.53;1.10;;;14.20;99.90;;;;;;4997143;28;20509;-53
2021/07/09 06:01:26;;;;;;;1.07;0.97;;;14.20;99.90;;;;;;4996000;28;20660;-53
2021/07/09 06:03:55;;;;;;;1.30;1.20;;;14.20;99.90;;;;;;4996340;28;20879;-53
2021/07/09 06:06:22;;;;;;;1.50;1.00;;;14.20;99.90;;;;;;4996327;28;20481;-52
2021/07/09 06:08:49;;;;;;;3.23;1.40;;;14.20;99.90;;;;;;4996395;28;20880;-53
2021/07/09 06:11:16;;;;;;;1.47;1.20;;;14.20;99.90;;;;;;4996223;28;20505;-53
2021/07/09 06:13:43;;;;;;;1.57;1.30;;;14.30;99.90;;;;;;4996326;28;20529;-52
2021/07/09 06:16:10;;;;;;;1.90;1.50;;;14.20;99.90;;;;;;4995592;28;20474;-53
2021/07/09 06:18:37;;;;;;;1.60;1.50;;;14.10;99.90;;;;;;4995113;28;20454;-52
2021/07/09 06:21:05;;;;;;;1.67;1.40;;;14.20;99.90;;;;;;4992655;28;20486;-53
2021/07/09 06:23:32;;;;;;;1.97;1.63;;;14.30;99.90;;;;;;4996526;28;20943;-52
2021/07/09 06:25:59;;;;;;;2.10;2.00;;;14.30;99.90;;;;;;4996762;28;20520;-52
2021/07/09 06:28:26;;;;;;;2.37;1.77;;;14.30;99.90;;;;;;4996775;28;21008;-53
2021/07/09 06:30:53;;;;;;;2.50;1.80;;;14.40;99.90;;;;;;4996176;28;20501;-52
2021/07/09 06:33:24;;;;;;;1.97;1.67;;;14.40;99.90;;;;;;4996380;28;20582;-52
2021/07/09 06:35:51;;;;;;;3.23;2.30;;;14.50;99.90;;;;;;4996119;28;20493;-53
2021/07/09 06:38:19;;;;;;;2.73;2.53;;;14.50;99.90;;;;;;4991478;28;21003;-53
2021/07/09 06:40:46;;;;;;;3.77;2.87;;;14.60;99.90;;;;;;4993751;28;20503;-53
2021/07/09 06:43:13;;;;;;;2.80;2.60;;;14.60;99.90;;;;;;4996318;28;20532;-53
2021/07/09 06:45:41;;;;;;;2.67;2.47;;;14.60;99.90;;;;;;4997118;28;21018;-52
2021/07/09 06:48:09;;;;;;;2.90;2.20;;;14.60;99.90;;;;;;4997471;28;20454;-53
2021/07/09 06:50:38;;;;;;;2.90;2.20;;;14.70;99.90;;;;;;4997208;28;20458;-52
2021/07/09 06:53:06;;;;;;;2.53;2.33;;;14.90;99.90;;;;;;4996081;28;20963;-52
2021/07/09 06:55:34;;;;;;;3.13;2.57;;;14.80;99.90;;;;;;4995387;28;20458;-53
2021/07/09 06:58:01;;;;;;;5.53;2.77;;;14.70;99.90;;;;;;4997562;28;20531;-52
2021/07/09 07:00:28;;;;;;;2.80;2.50;;;14.90;99.90;;;;;;4997092;28;20575;-53
2021/07/09 07:02:55;;;;;;;2.20;2.00;;;14.90;99.90;;;;;;4997115;28;20508;-53
2021/07/09 07:05:22;;;;;;;2.40;2.20;;;15.00;99.90;;;;;;4993731;28;20454;-53
2021/07/09 07:07:49;;;;;;;3.00;2.13;;;15.20;99.90;;;;;;4975042;28;20467;-52
2021/07/09 07:10:16;;;;;;;3.10;2.10;;;15.30;99.90;;;;;;4993969;28;20446;-53
2021/07/09 07:12:47;;;;;;;4.90;2.27;;;15.30;99.90;;;;;;4993892;28;20451;-54
2021/07/09 07:15:15;;;;;;;2.73;2.00;;;15.30;99.90;;;;;;4994449;28;20457;-53
2021/07/09 07:17:42;;;;;;;1.77;1.60;;;15.50;99.90;;;;;;4990633;28;20462;-53
2021/07/09 07:20:10;;;;;;;1.80;1.70;;;15.50;99.90;;;;;;4991953;28;20948;-52
2021/07/09 07:22:37;;;;;;;1.37;1.27;;;15.70;99.90;;;;;;4993083;28;20482;-53
2021/07/09 07:25:05;;;;;;;1.50;1.37;;;16.00;99.90;;;;;;4994433;28;20420;-53
2021/07/09 07:27:32;;;;;;;1.87;1.00;;;16.10;99.90;;;;;;4993797;28;20509;-52
2021/07/09 07:30:01;;;;;;;1.50;1.40;;;16.30;99.90;;;;;;4993919;28;20450;-52
2021/07/09 07:32:28;;;;;;;1.75;1.30;;;16.50;99.90;;;;;;4989734;28;20926;-53
2021/07/09 07:34:55;;;;;;;1.63;1.17;;;16.80;99.90;;;;;;4993743;28;20254;-53
2021/07/09 07:37:22;;;;;;;1.73;1.00;;;17.10;99.90;;;;;;4993249;28;20478;-52
2021/07/09 07:39:50;;;;;;;1.30;1.20;;;17.30;99.90;;;;;;4993566;28;20458;-52
2021/07/09 07:42:17;;;;;;;1.20;1.10;;;17.50;99.90;;;;;;4992974;28;20830;-52
2021/07/09 07:44:44;;;;;;;6.17;0.90;;;17.40;99.90;;;;;;4993946;28;20454;-53
2021/07/09 07:47:12;;;;;;;1.30;0.90;;;17.40;99.90;;;;;;4993262;28;20474;-52
2021/07/09 07:49:39;;;;;;;2.30;1.03;;;17.10;99.90;;;;;;4993310;28;20501;-52
2021/07/09 07:52:06;;;;;;;1.00;0.90;;;17.10;99.90;;;;;;4993024;28;20459;-52
2021/07/09 07:54:33;;;;;;;1.57;1.00;;;17.20;99.90;;;;;;4993139;28;21026;-52
2021/07/09 07:57:02;;;;;;;1.33;0.90;;;17.30;99.90;;;;;;4993445;28;20474;-53
2021/07/09 07:59:29;;;;;;;1.00;0.90;;;17.30;99.90;;;;;;4993411;28;20465;-52
2021/07/09 08:01:56;;;;;;;1.00;0.80;;;17.90;99.90;;;;;;4993120;28;20839;-53
2021/07/09 08:04:24;;;;;;;0.83;0.80;;;19.00;99.90;;;;;;4993346;28;20516;-53
2021/07/09 08:06:54;;;;;;;0.70;0.70;;;20.10;99.90;;;;;;4993755;28;20474;-53
2021/07/09 08:09:21;;;;;;;1.00;0.87;;;21.00;99.90;;;;;;4993762;28;20455;-53
2021/07/09 08:11:50;;;;;;;1.17;0.90;;;21.90;99.90;;;;;;4993186;28;20446;-52
2021/07/09 08:14:18;;;;;;;1.10;1.00;;;22.60;99.90;;;;;;4993084;28;20486;-53
2021/07/09 08:16:51;;;;;;;1.13;0.70;;;23.00;99.90;;;;;;4993005;28;20470;-53
2021/07/09 08:19:18;;;;;;;0.90;0.83;;;23.20;99.90;;;;;;4993357;28;20447;-53
2021/07/09 08:21:50;;;;;;;1.57;0.70;;;22.40;99.90;;;;;;4993497;28;20486;-53
2021/07/09 08:24:18;;;;;;;0.80;0.80;;;21.10;99.90;;;;;;4993421;28;20442;-53
2021/07/09 08:26:46;;;;;;;1.00;0.87;;;19.90;99.90;;;;;;4993452;28;20474;-53
2021/07/09 08:29:13;;;;;;;1.57;0.70;;;19.00;99.90;;;;;;4993132;28;20875;-52
2021/07/09 08:31:40;;;;;;;1.10;0.70;;;18.40;99.90;;;;;;4992772;28;20509;-52
2021/07/09 08:34:07;;;;;;;1.10;0.77;;;18.00;99.90;;;;;;4993045;28;20508;-53
2021/07/09 08:36:34;;;;;;;0.83;0.80;;;17.90;99.90;;;;;;4992772;28;20532;-52
2021/07/09 08:39:03;;;;;;;0.70;0.70;;;18.20;99.90;;;;;;4993128;28;20446;-52
2021/07/09 08:41:32;;;;;;;0.67;0.67;;;18.40;99.90;;;;;;4992948;28;20926;-52
2021/07/09 08:43:59;;;;;;;1.10;0.90;;;18.20;99.90;;;;;;4992618;28;20462;-53
2021/07/09 08:46:28;;;;;;;0.80;0.80;;;18.10;99.90;;;;;;4992433;28;20570;-52
2021/07/09 08:48:55;;;;;;;1.00;0.90;;;17.90;99.90;;;;;;4992959;28;20453;-53
2021/07/09 08:51:22;;;;;;;0.83;0.80;;;17.90;99.90;;;;;;4992900;28;20505;-52
2021/07/09 08:53:49;;;;;;;1.83;0.90;;;17.80;99.90;;;;;;4992620;28;20450;-53
2021/07/09 08:56:17;;;;;;;1.77;1.60;;;17.80;99.90;;;;;;4992713;28;20540;-54
2021/07/09 08:58:45;;;;;;;1.63;1.00;;;17.80;99.90;;;;;;4992570;28;20944;-52
2021/07/09 09:01:14;;;;;;;1.00;0.90;;;17.80;99.90;;;;;;4992242;28;20505;-53
2021/07/09 09:03:41;;;;;;;2.90;0.90;;;17.50;99.90;;;;;;4992515;28;20537;-52
2021/07/09 09:06:14;;;;;;;0.80;0.80;;;17.50;99.90;;;;;;4992437;28;20470;-53
2021/07/09 09:08:41;;;;;;;1.90;0.70;;;17.50;99.90;;;;;;4992745;28;20489;-52
2021/07/09 09:11:08;;;;;;;0.73;0.70;;;17.70;99.90;;;;;;4992493;28;20450;-52
2021/07/09 09:13:38;;;;;;;1.47;0.80;;;18.00;99.90;;;;;;4992416;28;20876;-52
2021/07/09 09:16:07;;;;;;;1.33;0.97;;;19.10;99.90;;;;;;4991806;28;20466;-52
2021/07/09 09:18:36;;;;;;;1.53;0.73;;;20.30;99.90;;;;;;4992224;28;20454;-53
2021/07/09 09:21:05;;;;;;;1.37;0.90;;;21.70;99.90;;;;;;4992189;28;20443;-52
2021/07/09 09:23:35;;;;;;;1.07;0.97;;;22.40;99.90;;;;;;4991912;28;20486;-53
2021/07/09 09:26:03;;;;;;;1.13;0.73;;;22.80;99.90;;;;;;4992195;28;20854;-53
2021/07/09 09:28:31;;;;;;;1.10;1.00;;;22.70;99.90;;;;;;4991627;28;20450;-53
2021/07/09 09:31:00;;;;;;;2.40;0.90;;;22.90;99.90;;;;;;4992026;28;20584;-53
2021/07/09 09:33:32;;;;;;;0.90;0.80;;;22.70;99.90;;;;;;4991574;28;20944;-52
2021/07/09 09:36:00;;;;;;;1.63;0.80;;;22.70;99.90;;;;;;4991828;28;20868;-53
2021/07/09 09:38:29;;;;;;;1.67;1.00;;;23.60;99.90;;;;;;4991965;28;20446;-52
2021/07/09 09:40:58;;;;;;;0.80;0.70;;;24.00;99.90;;;;;;4991802;28;20372;-53
2021/07/09 09:43:29;;;;;;;0.90;0.80;;;24.20;99.90;;;;;;4989813;28;20297;-53
2021/07/09 09:46:06;;;;;;;0.97;0.90;;;23.60;99.90;;;;;;4991643;28;20536;-53
2021/07/09 09:48:42;;;;;;;0.80;0.80;;;22.90;99.90;;;;;;4990981;28;20450;-53
2021/07/09 09:51:28;;;;;;;0.80;0.80;;;22.00;99.90;;;;;;4990833;28;20889;-53
2021/07/09 09:53:57;;;;;;;0.83;0.83;;;21.80;99.90;;;;;;4991493;28;20896;-53
2021/07/09 09:56:35;;;;;;;1.13;1.00;;;21.40;99.90;;;;;;4991181;28;20474;-53
2021/07/09 09:59:16;;;;;;;1.33;0.90;;;20.80;99.90;;;;;;4991548;28;20454;-53
2021/07/09 10:01:54;;;;;;;1.60;1.00;;;20.40;99.90;;;;;;4991277;28;20455;-53
2021/07/09 10:04:23;;;;;;;1.57;1.07;;;20.50;99.90;;;;;;4991575;28;20994;-53
2021/07/09 10:06:53;;;;;;;0.90;0.80;;;20.60;99.90;;;;;;4991638;28;20470;-53
2021/07/09 10:09:21;;;;;;;0.90;0.90;;;20.50;99.90;;;;;;4991035;28;20466;-53
2021/07/09 10:11:49;;;;;;;1.40;1.13;;;20.50;99.90;;;;;;4991455;28;20521;-52
2021/07/09 10:14:17;;;;;;;1.77;1.10;;;20.80;99.90;;;;;;4990293;28;20504;-53
2021/07/09 10:16:46;;;;;;;1.53;1.00;;;21.00;99.90;;;;;;4990713;28;20474;-53
2021/07/09 10:19:19;;;;;;;1.67;1.03;;;21.60;99.90;;;;;;4991152;28;20458;-53
2021/07/09 10:21:46;;;;;;;1.97;1.20;;;22.60;99.90;;;;;;4991371;28;20508;-53
2021/07/09 10:24:17;;;;;;;1.10;1.10;;;23.30;99.90;;;;;;4991534;28;20459;-53
2021/07/09 10:26:48;;;;;;;1.30;1.20;;;23.90;99.90;;;;;;4991396;28;20521;-53
2021/07/09 10:29:17;;;;;;;1.30;1.20;;;24.20;99.90;;;;;;4991469;28;20509;-53
2021/07/09 10:31:46;;;;;;;1.63;1.40;;;24.60;99.90;;;;;;4990708;28;20525;-53
2021/07/09 10:34:32;;;;;;;2.43;1.20;;;24.60;99.90;;;;;;4990628;28;20508;-53
2021/07/09 10:37:01;;;;;;;2.17;1.67;;;25.00;99.90;;;;;;5051498;22;20581;-51
2021/07/09 10:39:40;;;;;;;1.70;1.60;;;25.20;99.90;;;;;;5071722;28;20446;-51
2021/07/09 10:42:26;;;;;;;2.70;2.00;;;25.20;99.90;;;;;;5074202;28;20534;-51
2021/07/09 10:45:01;;;;;;;1.93;1.40;;;25.20;99.90;;;;;;5072923;28;21016;-50
2021/07/09 10:47:43;;;;;;;1.30;1.20;;;25.00;99.90;;;;;;5059255;28;20475;-50
2021/07/09 10:50:12;;;;;;;1.60;1.50;;;25.20;99.90;;;;;;5054268;28;20509;-51
2021/07/09 10:52:54;;;;;;;1.60;1.30;;;25.10;99.90;;;;;;5054731;28;20451;-51
2021/07/09 10:55:36;;;;;;;4.43;1.50;;;25.10;99.90;;;;;;5054622;28;20448;-51
2021/07/09 10:58:34;;;;;;;1.47;1.37;;;25.00;99.90;;;;;;5050424;28;20593;-50
2021/07/09 11:01:18;;;;;;;4.60;1.70;;;25.00;99.90;;;;;;5007599;28;20465;-50
2021/07/09 11:03:48;;;;;;;1.83;1.73;;;25.30;99.90;;;;;;5051435;28;20494;-50
2021/07/09 11:06:19;;;;;;;1.40;1.30;;;25.30;99.90;;;;;;5034539;28;20476;-51
2021/07/09 11:09:04;;;;;;;1.60;1.50;;;25.20;99.90;;;;;;5034277;28;20453;-50
2021/07/09 11:11:44;;;;;;;2.40;1.50;;;25.00;99.90;;;;;;5033849;28;20448;-51
2021/07/09 11:14:14;;;;;;;1.77;1.63;;;24.90;99.90;;;;;;5045524;28;20471;-50
2021/07/09 11:16:42;;;;;;;2.80;2.00;;;24.90;99.90;;;;;;5033695;28;20503;-50
2021/07/09 11:19:18;;;;;;;3.50;1.63;;;24.70;99.90;;;;;;5037668;28;20979;-50
2021/07/09 11:21:56;;;;;;;1.67;1.57;;;24.40;99.90;;;;;;5041451;28;20440;-50
2021/07/09 11:24:26;;;;;;;2.33;2.13;;;24.40;99.90;;;;;;5040242;28;20452;-50
2021/07/09 11:26:58;;;;;;;1.73;1.63;;;24.70;99.90;;;;;;5032504;28;20472;-50
2021/07/09 11:29:30;;;;;;;1.80;1.70;;;24.80;99.90;;;;;;5033206;28;20444;-49
2021/07/09 11:32:00;;;;;;;3.00;1.70;;;24.70;99.90;;;;;;5031944;28;20938;-50
2021/07/09 11:34:30;;;;;;;2.00;1.80;;;24.70;99.90;;;;;;5040906;28;20444;-50
2021/07/09 11:37:04;;;;;;;3.13;2.10;;;24.80;99.90;;;;;;5037755;28;21049;-50
2021/07/09 11:39:33;;;;;;;2.20;1.80;;;24.80;99.90;;;;;;5039944;28;20459;-50
2021/07/09 11:42:03;;;;;;;2.20;2.00;;;24.70;99.90;;;;;;5032113;28;20471;-49
2021/07/09 11:44:32;;;;;;;2.03;1.50;;;24.80;99.90;;;;;;5036902;28;20503;-49
2021/07/09 11:47:01;;;;;;;2.30;1.90;;;24.60;99.90;;;;;;5031646;28;20472;-50
2021/07/09 11:49:31;;;;;;;2.03;1.80;;;24.20;99.90;;;;;;5032822;28;20499;-50
2021/07/09 11:52:01;;;;;;;1.70;1.60;;;24.20;99.90;;;;;;5031642;28;20495;-49
2021/07/09 11:54:31;;;;;;;3.83;1.90;;;24.20;99.90;;;;;;5033048;28;20452;-49
2021/07/09 11:57:04;;;;;;;2.23;1.87;;;24.30;99.90;;;;;;5032891;28;20475;-49
2021/07/09 11:59:32;;;;;;;2.00;1.90;;;24.30;99.90;;;;;;5032658;28;20440;-50
2021/07/09 12:02:08;;;;;;;1.80;1.70;;;23.90;99.90;;;;;;5033007;28;20445;-51
2021/07/09 12:04:36;;;;;;;2.37;2.10;;;23.30;99.90;;;;;;5033239;28;20455;-51
2021/07/09 12:07:23;;;;;;;2.10;2.00;;;23.10;99.90;;;;;;5036335;28;20475;-50
2021/07/09 12:09:51;;;;;;;2.05;1.85;;;22.90;99.90;;;;;;5051327;28;20439;-50
2021/07/09 12:12:19;;;;;;;1.93;1.83;;;22.60;99.90;;;;;;5048128;28;20209;-50
2021/07/09 12:14:54;;;;;;;2.07;1.97;;;22.30;99.90;;;;;;5045277;28;20448;-50
2021/07/09 12:17:21;;;;;;;1.83;1.73;;;22.10;99.90;;;;;;5044560;28;20470;-50
2021/07/09 12:20:04;;;;;;;2.00;1.90;;;22.20;99.90;;;;;;5052757;28;20455;-50
2021/07/09 12:22:33;;;;;;;2.10;1.90;;;22.10;99.90;;;;;;5052663;28;20475;-48
2021/07/09 12:25:04;;;;;;;2.20;1.87;;;22.00;99.90;;;;;;5052670;28;20509;-50
2021/07/09 12:27:32;;;;;;;2.37;2.17;;;21.80;99.90;;;;;;5050936;28;20467;-50
2021/07/09 12:30:04;;;;;;;2.20;2.03;;;21.70;99.90;;;;;;5046459;28;20818;-50
2021/07/09 12:32:31;;;;;;;4.90;2.10;;;21.50;99.90;;;;;;5034298;28;20455;-50
2021/07/09 12:35:07;;;;;;;3.60;2.20;;;21.50;99.90;;;;;;5032866;28;20527;-50
2021/07/09 12:37:36;;;;;;;1.93;1.83;;;21.70;99.90;;;;;;5044922;28;20483;-50
2021/07/09 12:40:18;;;;;;;2.00;1.80;;;21.80;99.90;;;;;;5032606;28;20507;-50
2021/07/09 12:42:48;;;;;;;2.90;1.93;;;21.70;99.90;;;;;;5039827;28;20476;-49
2021/07/09 12:45:17;;;;;;;3.60;2.20;;;22.00;99.90;;;;;;5033955;28;20968;-51
2021/07/09 12:47:52;;;;;;;2.70;1.97;;;22.30;99.90;;;;;;5047212;28;20541;-50
2021/07/09 12:50:23;;;;;;;1.93;1.83;;;22.50;99.90;;;;;;5050872;28;20448;-49
2021/07/09 12:52:52;;;;;;;2.40;2.10;;;22.60;99.90;;;;;;5050328;28;20881;-50
2021/07/09 12:55:39;;;;;;;2.10;2.00;;;22.90;99.90;;;;;;5041892;28;20452;-50
2021/07/09 12:58:17;;;;;;;2.60;2.40;;;23.10;99.90;;;;;;5032109;28;20468;-49
2021/07/09 13:00:53;;;;;;;2.23;2.07;;;22.60;99.90;;;;;;5032064;28;20982;-50